sensor_id;sensor_type;location;lat;lon;timestamp;P1;durP1;ratioP1;P2;durP2;ratioP2
51907;SDS011;39320;53.214;6.556;2023-04-01T00:00:44;5.30;;;4.75;;
51907;SDS011;39320;53.214;6.556;2023-04-01T00:03:10;5.07;;;3.88;;
51907;SDS011;39320;53.214;6.556;2023-04-01T00:05:36;5.28;;;4.78;;
51907;SDS011;39320;53.214;6.556;2023-04-01T00:08:02;5.90;;;5.38;;
51907;SDS011;39320;53.214;6.556;2023-04-01T00:10:28;5.22;;;4.78;;
51907;SDS011;39320;53.214;6.556;2023-04-01T00:12:56;5.47;;;4.97;;
51907;SDS011;39320;53.214;6.556;2023-04-01T00:15:22;6.25;;;4.63;;
51907;SDS011;39320;53.214;6.556;2023-04-01T00:17:48;5.88;;;4.93;;
51907;SDS011;39320;53.214;6.556;2023-04-01T00:20:14;6.38;;;5.60;;
51907;SDS011;39320;53.214;6.556;2023-04-01T00:22:40;5.80;;;5.20;;
51907;SDS011;39320;53.214;6.556;2023-04-01T00:25:06;7.38;;;5.18;;
51907;SDS011;39320;53.214;6.556;2023-04-01T00:27:32;6.85;;;6.22;;
51907;SDS011;39320;53.214;6.556;2023-04-01T00:29:58;6.25;;;5.65;;
51907;SDS011;39320;53.214;6.556;2023-04-01T00:32:24;6.03;;;5.47;;
51907;SDS011;39320;53.214;6.556;2023-04-01T00:34:51;7.38;;;5.80;;
51907;SDS011;39320;53.214;6.556;2023-04-01T00:37:18;6.53;;;5.93;;
51907;SDS011;39320;53.214;6.556;2023-04-01T00:39:46;6.40;;;5.70;;
51907;SDS011;39320;53.214;6.556;2023-04-01T00:42:12;5.03;;;4.53;;
51907;SDS011;39320;53.214;6.556;2023-04-01T00:44:39;5.97;;;5.15;;
51907;SDS011;39320;53.214;6.556;2023-04-01T00:47:05;6.25;;;4.72;;
51907;SDS011;39320;53.214;6.556;2023-04-01T00:49:32;5.20;;;4.70;;
51907;SDS011;39320;53.214;6.556;2023-04-01T00:52:04;4.88;;;4.47;;
51907;SDS011;39320;53.214;6.556;2023-04-01T00:54:31;5.35;;;4.63;;
51907;SDS011;39320;53.214;6.556;2023-04-01T00:59:46;5.13;;;4.63;;
51907;SDS011;39320;53.214;6.556;2023-04-01T01:02:16;5.25;;;4.40;;
51907;SDS011;39320;53.214;6.556;2023-04-01T01:04:43;5.68;;;4.40;;
51907;SDS011;39320;53.214;6.556;2023-04-01T01:15:25;5.60;;;5.03;;
51907;SDS011;39320;53.214;6.556;2023-04-01T01:29:33;5.75;;;5.18;;
51907;SDS011;39320;53.214;6.556;2023-04-01T01:31:52;6.13;;;4.82;;
51907;SDS011;39320;53.214;6.556;2023-04-01T01:34:30;5.70;;;5.20;;
51907;SDS011;39320;53.214;6.556;2023-04-01T01:37:14;5.43;;;4.93;;
51907;SDS011;39320;53.214;6.556;2023-04-01T01:39:42;6.30;;;5.68;;
51907;SDS011;39320;53.214;6.556;2023-04-01T01:42:15;6.57;;;5.88;;
51907;SDS011;39320;53.214;6.556;2023-04-01T01:44:44;5.63;;;5.07;;
51907;SDS011;39320;53.214;6.556;2023-04-01T01:47:12;6.57;;;6.03;;
51907;SDS011;39320;53.214;6.556;2023-04-01T01:49:39;6.28;;;5.43;;
51907;SDS011;39320;53.214;6.556;2023-04-01T01:52:07;6.25;;;5.65;;
51907;SDS011;39320;53.214;6.556;2023-04-01T01:54:33;6.47;;;5.47;;
51907;SDS011;39320;53.214;6.556;2023-04-01T01:57:08;8.30;;;5.70;;
51907;SDS011;39320;53.214;6.556;2023-04-01T01:59:35;6.43;;;5.82;;
51907;SDS011;39320;53.214;6.556;2023-04-01T02:02:03;6.55;;;6.00;;
51907;SDS011;39320;53.214;6.556;2023-04-01T02:04:39;6.20;;;5.53;;
51907;SDS011;39320;53.214;6.556;2023-04-01T02:09:54;6.33;;;5.73;;
51907;SDS011;39320;53.214;6.556;2023-04-01T02:12:23;7.03;;;5.85;;
51907;SDS011;39320;53.214;6.556;2023-04-01T02:14:51;7.10;;;5.53;;
51907;SDS011;39320;53.214;6.556;2023-04-01T02:17:22;6.43;;;5.55;;
51907;SDS011;39320;53.214;6.556;2023-04-01T02:22:38;6.50;;;5.80;;
51907;SDS011;39320;53.214;6.556;2023-04-01T02:25:09;7.30;;;5.38;;
51907;SDS011;39320;53.214;6.556;2023-04-01T02:27:38;6.75;;;5.00;;
51907;SDS011;39320;53.214;6.556;2023-04-01T02:30:06;5.72;;;5.18;;
51907;SDS011;39320;53.214;6.556;2023-04-01T02:32:33;5.43;;;4.93;;
51907;SDS011;39320;53.214;6.556;2023-04-01T02:35:02;5.32;;;4.75;;
51907;SDS011;39320;53.214;6.556;2023-04-01T02:37:36;6.00;;;5.45;;
51907;SDS011;39320;53.214;6.556;2023-04-01T02:40:04;6.75;;;5.82;;
51907;SDS011;39320;53.214;6.556;2023-04-01T02:42:32;6.32;;;5.60;;
51907;SDS011;39320;53.214;6.556;2023-04-01T02:44:59;7.57;;;5.82;;
51907;SDS011;39320;53.214;6.556;2023-04-01T02:47:26;7.70;;;5.03;;
51907;SDS011;39320;53.214;6.556;2023-04-01T02:49:52;5.63;;;5.07;;
51907;SDS011;39320;53.214;6.556;2023-04-01T02:52:26;7.10;;;6.13;;
51907;SDS011;39320;53.214;6.556;2023-04-01T02:54:54;6.55;;;5.50;;
51907;SDS011;39320;53.214;6.556;2023-04-01T02:57:20;6.18;;;5.55;;
51907;SDS011;39320;53.214;6.556;2023-04-01T02:59:46;6.40;;;5.43;;
51907;SDS011;39320;53.214;6.556;2023-04-01T03:02:13;7.38;;;6.68;;
51907;SDS011;39320;53.214;6.556;2023-04-01T03:04:39;7.45;;;6.13;;
51907;SDS011;39320;53.214;6.556;2023-04-01T03:07:05;6.93;;;5.90;;
51907;SDS011;39320;53.214;6.556;2023-04-01T03:09:31;6.80;;;6.07;;
51907;SDS011;39320;53.214;6.556;2023-04-01T03:11:57;7.03;;;6.32;;
51907;SDS011;39320;53.214;6.556;2023-04-01T03:14:23;7.40;;;6.68;;
51907;SDS011;39320;53.214;6.556;2023-04-01T03:16:49;7.72;;;6.90;;
51907;SDS011;39320;53.214;6.556;2023-04-01T03:19:15;9.50;;;8.10;;
51907;SDS011;39320;53.214;6.556;2023-04-01T03:21:40;8.20;;;7.40;;
51907;SDS011;39320;53.214;6.556;2023-04-01T03:24:06;11.35;;;7.68;;
51907;SDS011;39320;53.214;6.556;2023-04-01T03:26:33;8.93;;;8.07;;
51907;SDS011;39320;53.214;6.556;2023-04-01T03:28:59;8.48;;;7.65;;
51907;SDS011;39320;53.214;6.556;2023-04-01T03:31:25;8.30;;;7.47;;
51907;SDS011;39320;53.214;6.556;2023-04-01T03:33:51;9.25;;;7.95;;
51907;SDS011;39320;53.214;6.556;2023-04-01T03:36:16;9.70;;;8.48;;
51907;SDS011;39320;53.214;6.556;2023-04-01T03:38:43;9.20;;;8.13;;
51907;SDS011;39320;53.214;6.556;2023-04-01T03:41:16;9.10;;;8.07;;
51907;SDS011;39320;53.214;6.556;2023-04-01T03:43:43;8.88;;;8.02;;
51907;SDS011;39320;53.214;6.556;2023-04-01T03:46:10;10.80;;;8.75;;
51907;SDS011;39320;53.214;6.556;2023-04-01T03:48:36;9.68;;;8.73;;
51907;SDS011;39320;53.214;6.556;2023-04-01T03:51:01;9.25;;;8.27;;
51907;SDS011;39320;53.214;6.556;2023-04-01T03:53:32;10.80;;;8.70;;
51907;SDS011;39320;53.214;6.556;2023-04-01T03:55:58;9.10;;;8.20;;
51907;SDS011;39320;53.214;6.556;2023-04-01T03:58:28;10.35;;;8.70;;
51907;SDS011;39320;53.214;6.556;2023-04-01T04:00:53;9.73;;;8.73;;
51907;SDS011;39320;53.214;6.556;2023-04-01T04:03:20;8.98;;;8.07;;
51907;SDS011;39320;53.214;6.556;2023-04-01T04:05:46;8.60;;;7.80;;
51907;SDS011;39320;53.214;6.556;2023-04-01T04:08:13;9.68;;;8.63;;
51907;SDS011;39320;53.214;6.556;2023-04-01T04:10:39;9.45;;;8.50;;
51907;SDS011;39320;53.214;6.556;2023-04-01T04:13:06;9.25;;;7.97;;
51907;SDS011;39320;53.214;6.556;2023-04-01T04:15:32;9.05;;;8.23;;
51907;SDS011;39320;53.214;6.556;2023-04-01T04:17:57;12.35;;;8.85;;
51907;SDS011;39320;53.214;6.556;2023-04-01T04:20:23;9.75;;;8.60;;
51907;SDS011;39320;53.214;6.556;2023-04-01T04:22:49;10.90;;;9.57;;
51907;SDS011;39320;53.214;6.556;2023-04-01T04:25:15;9.23;;;8.25;;
51907;SDS011;39320;53.214;6.556;2023-04-01T04:27:41;9.90;;;8.85;;
51907;SDS011;39320;53.214;6.556;2023-04-01T04:30:07;10.30;;;9.20;;
51907;SDS011;39320;53.214;6.556;2023-04-01T04:32:34;10.15;;;8.25;;
51907;SDS011;39320;53.214;6.556;2023-04-01T04:35:00;9.70;;;8.70;;
51907;SDS011;39320;53.214;6.556;2023-04-01T04:37:26;10.00;;;9.02;;
51907;SDS011;39320;53.214;6.556;2023-04-01T04:39:52;9.45;;;8.45;;
51907;SDS011;39320;53.214;6.556;2023-04-01T04:42:18;9.57;;;8.57;;
51907;SDS011;39320;53.214;6.556;2023-04-01T04:44:44;9.90;;;8.27;;
51907;SDS011;39320;53.214;6.556;2023-04-01T04:47:09;10.38;;;9.38;;
51907;SDS011;39320;53.214;6.556;2023-04-01T04:49:35;9.13;;;8.23;;
51907;SDS011;39320;53.214;6.556;2023-04-01T04:52:01;9.50;;;8.35;;
51907;SDS011;39320;53.214;6.556;2023-04-01T04:54:27;10.25;;;9.27;;
51907;SDS011;39320;53.214;6.556;2023-04-01T04:56:54;10.45;;;8.80;;
51907;SDS011;39320;53.214;6.556;2023-04-01T04:59:23;10.23;;;8.73;;
51907;SDS011;39320;53.214;6.556;2023-04-01T05:01:49;10.90;;;9.65;;
51907;SDS011;39320;53.214;6.556;2023-04-01T05:04:15;10.07;;;9.15;;
51907;SDS011;39320;53.214;6.556;2023-04-01T05:06:42;10.75;;;9.65;;
51907;SDS011;39320;53.214;6.556;2023-04-01T05:09:10;10.80;;;8.88;;
51907;SDS011;39320;53.214;6.556;2023-04-01T05:11:36;10.32;;;9.23;;
51907;SDS011;39320;53.214;6.556;2023-04-01T05:14:02;10.73;;;9.55;;
51907;SDS011;39320;53.214;6.556;2023-04-01T05:16:30;10.93;;;9.48;;
51907;SDS011;39320;53.214;6.556;2023-04-01T05:18:56;12.63;;;9.65;;
51907;SDS011;39320;53.214;6.556;2023-04-01T05:21:22;12.60;;;9.88;;
51907;SDS011;39320;53.214;6.556;2023-04-01T05:23:48;9.82;;;8.82;;
51907;SDS011;39320;53.214;6.556;2023-04-01T05:26:14;10.90;;;9.80;;
51907;SDS011;39320;53.214;6.556;2023-04-01T05:28:40;10.13;;;8.77;;
51907;SDS011;39320;53.214;6.556;2023-04-01T05:31:06;11.80;;;9.50;;
51907;SDS011;39320;53.214;6.556;2023-04-01T05:33:32;10.48;;;9.48;;
51907;SDS011;39320;53.214;6.556;2023-04-01T05:36:05;10.90;;;9.80;;
51907;SDS011;39320;53.214;6.556;2023-04-01T05:38:35;10.48;;;9.35;;
51907;SDS011;39320;53.214;6.556;2023-04-01T05:41:01;11.90;;;9.77;;
51907;SDS011;39320;53.214;6.556;2023-04-01T05:43:28;10.25;;;8.65;;
51907;SDS011;39320;53.214;6.556;2023-04-01T05:45:57;10.98;;;9.77;;
51907;SDS011;39320;53.214;6.556;2023-04-01T05:48:23;10.65;;;9.18;;
51907;SDS011;39320;53.214;6.556;2023-04-01T05:50:48;10.00;;;8.65;;
51907;SDS011;39320;53.214;6.556;2023-04-01T05:53:14;10.13;;;9.07;;
51907;SDS011;39320;53.214;6.556;2023-04-01T05:55:40;9.15;;;8.25;;
51907;SDS011;39320;53.214;6.556;2023-04-01T05:58:06;10.70;;;9.23;;
51907;SDS011;39320;53.214;6.556;2023-04-01T06:00:31;8.90;;;8.10;;
51907;SDS011;39320;53.214;6.556;2023-04-01T06:02:58;10.52;;;9.43;;
51907;SDS011;39320;53.214;6.556;2023-04-01T06:05:27;9.70;;;8.70;;
51907;SDS011;39320;53.214;6.556;2023-04-01T06:07:56;8.10;;;7.30;;
51907;SDS011;39320;53.214;6.556;2023-04-01T06:10:30;9.35;;;8.02;;
51907;SDS011;39320;53.214;6.556;2023-04-01T06:21:37;10.23;;;9.00;;
51907;SDS011;39320;53.214;6.556;2023-04-01T06:29:55;12.23;;;10.15;;
51907;SDS011;39320;53.214;6.556;2023-04-01T06:37:58;11.85;;;10.63;;
51907;SDS011;39320;53.214;6.556;2023-04-01T06:49:00;11.85;;;10.70;;
51907;SDS011;39320;53.214;6.556;2023-04-01T06:54:33;11.27;;;9.95;;
51907;SDS011;39320;53.214;6.556;2023-04-01T06:57:19;10.88;;;9.77;;
51907;SDS011;39320;53.214;6.556;2023-04-01T06:59:46;12.18;;;10.75;;
51907;SDS011;39320;53.214;6.556;2023-04-01T07:02:25;12.45;;;11.15;;
51907;SDS011;39320;53.214;6.556;2023-04-01T07:04:59;11.95;;;10.75;;
51907;SDS011;39320;53.214;6.556;2023-04-01T07:07:29;13.85;;;11.70;;
51907;SDS011;39320;53.214;6.556;2023-04-01T07:10:17;13.15;;;11.68;;
51907;SDS011;39320;53.214;6.556;2023-04-01T07:12:52;13.85;;;11.13;;
51907;SDS011;39320;53.214;6.556;2023-04-01T07:15:44;13.52;;;12.00;;
51907;SDS011;39320;53.214;6.556;2023-04-01T07:18:16;14.85;;;11.98;;
51907;SDS011;39320;53.214;6.556;2023-04-01T07:20:46;14.63;;;11.63;;
51907;SDS011;39320;53.214;6.556;2023-04-01T07:23:21;13.43;;;12.07;;
51907;SDS011;39320;53.214;6.556;2023-04-01T07:25:58;12.75;;;11.43;;
51907;SDS011;39320;53.214;6.556;2023-04-01T07:28:32;14.48;;;12.27;;
51907;SDS011;39320;53.214;6.556;2023-04-01T07:36:54;14.60;;;11.85;;
51907;SDS011;39320;53.214;6.556;2023-04-01T07:39:30;13.18;;;11.88;;
51907;SDS011;39320;53.214;6.556;2023-04-01T07:50:26;13.15;;;10.50;;
51907;SDS011;39320;53.214;6.556;2023-04-01T07:52:59;12.38;;;10.65;;
51907;SDS011;39320;53.214;6.556;2023-04-01T07:55:53;12.25;;;10.60;;
51907;SDS011;39320;53.214;6.556;2023-04-01T07:58:55;13.13;;;11.15;;
51907;SDS011;39320;53.214;6.556;2023-04-01T08:01:54;13.45;;;12.05;;
51907;SDS011;39320;53.214;6.556;2023-04-01T08:04:44;13.15;;;11.75;;
51907;SDS011;39320;53.214;6.556;2023-04-01T08:07:31;13.50;;;12.00;;
51907;SDS011;39320;53.214;6.556;2023-04-01T08:10:32;14.75;;;12.10;;
51907;SDS011;39320;53.214;6.556;2023-04-01T08:21:57;12.48;;;10.73;;
51907;SDS011;39320;53.214;6.556;2023-04-01T08:26:56;10.55;;;9.25;;
51907;SDS011;39320;53.214;6.556;2023-04-01T08:29:32;11.45;;;9.32;;
51907;SDS011;39320;53.214;6.556;2023-04-01T08:32:10;11.32;;;9.18;;
51907;SDS011;39320;53.214;6.556;2023-04-01T08:34:42;9.75;;;8.75;;
51907;SDS011;39320;53.214;6.556;2023-04-01T08:37:14;9.85;;;8.70;;
51907;SDS011;39320;53.214;6.556;2023-04-01T08:39:46;11.88;;;9.15;;
51907;SDS011;39320;53.214;6.556;2023-04-01T08:53:33;9.80;;;8.85;;
51907;SDS011;39320;53.214;6.556;2023-04-01T08:56:34;11.05;;;9.95;;
51907;SDS011;39320;53.214;6.556;2023-04-01T09:09:42;4.40;;;3.97;;
51907;SDS011;39320;53.214;6.556;2023-04-01T09:38:09;2.63;;;2.17;;
51907;SDS011;39320;53.214;6.556;2023-04-01T09:43:28;3.40;;;2.85;;
51907;SDS011;39320;53.214;6.556;2023-04-01T09:46:28;2.90;;;2.40;;
51907;SDS011;39320;53.214;6.556;2023-04-01T10:05:43;3.27;;;2.60;;
51907;SDS011;39320;53.214;6.556;2023-04-01T10:33:37;3.03;;;2.45;;
51907;SDS011;39320;53.214;6.556;2023-04-01T10:41:45;2.90;;;2.60;;
51907;SDS011;39320;53.214;6.556;2023-04-01T10:55:53;3.72;;;1.95;;
51907;SDS011;39320;53.214;6.556;2023-04-01T11:22:29;3.05;;;2.75;;
51907;SDS011;39320;53.214;6.556;2023-04-01T11:34:14;2.10;;;1.90;;
51907;SDS011;39320;53.214;6.556;2023-04-01T11:42:38;2.08;;;1.85;;
51907;SDS011;39320;53.214;6.556;2023-04-01T11:50:44;3.47;;;2.05;;
51907;SDS011;39320;53.214;6.556;2023-04-01T11:59:08;2.53;;;2.10;;
51907;SDS011;39320;53.214;6.556;2023-04-01T12:08:04;3.65;;;2.47;;
51907;SDS011;39320;53.214;6.556;2023-04-01T12:10:39;3.42;;;2.47;;
51907;SDS011;39320;53.214;6.556;2023-04-01T12:13:32;4.07;;;2.58;;
51907;SDS011;39320;53.214;6.556;2023-04-01T12:19:16;4.72;;;2.30;;
51907;SDS011;39320;53.214;6.556;2023-04-01T12:24:56;2.00;;;1.80;;
51907;SDS011;39320;53.214;6.556;2023-04-01T12:27:58;2.00;;;1.63;;
51907;SDS011;39320;53.214;6.556;2023-04-01T12:30:30;3.20;;;2.10;;
51907;SDS011;39320;53.214;6.556;2023-04-01T12:33:04;2.28;;;1.80;;
51907;SDS011;39320;53.214;6.556;2023-04-01T12:36:00;3.40;;;1.70;;
51907;SDS011;39320;53.214;6.556;2023-04-01T12:47:05;2.30;;;1.73;;
51907;SDS011;39320;53.214;6.556;2023-04-01T12:49:55;2.20;;;1.83;;
51907;SDS011;39320;53.214;6.556;2023-04-01T12:55:38;2.05;;;1.75;;
51907;SDS011;39320;53.214;6.556;2023-04-01T13:10:02;2.38;;;2.15;;
51907;SDS011;39320;53.214;6.556;2023-04-01T13:12:49;2.25;;;2.05;;
51907;SDS011;39320;53.214;6.556;2023-04-01T13:15:37;2.40;;;2.20;;
51907;SDS011;39320;53.214;6.556;2023-04-01T13:23:55;2.60;;;1.90;;
51907;SDS011;39320;53.214;6.556;2023-04-01T13:51:14;2.85;;;2.30;;
51907;SDS011;39320;53.214;6.556;2023-04-01T14:14:18;1.80;;;1.67;;
51907;SDS011;39320;53.214;6.556;2023-04-01T14:16:55;2.10;;;1.58;;
51907;SDS011;39320;53.214;6.556;2023-04-01T14:31:18;2.17;;;1.80;;
51907;SDS011;39320;53.214;6.556;2023-04-01T14:36:39;1.55;;;1.45;;
51907;SDS011;39320;53.214;6.556;2023-04-01T14:50:43;2.28;;;1.83;;
51907;SDS011;39320;53.214;6.556;2023-04-01T14:53:13;3.72;;;1.75;;
51907;SDS011;39320;53.214;6.556;2023-04-01T14:56:03;2.67;;;1.55;;
51907;SDS011;39320;53.214;6.556;2023-04-01T14:58:45;1.95;;;1.75;;
51907;SDS011;39320;53.214;6.556;2023-04-01T15:01:25;3.00;;;1.92;;
51907;SDS011;39320;53.214;6.556;2023-04-01T15:23:53;2.47;;;2.10;;
51907;SDS011;39320;53.214;6.556;2023-04-01T15:39:51;2.78;;;2.50;;
51907;SDS011;39320;53.214;6.556;2023-04-01T15:45:02;3.58;;;2.92;;
51907;SDS011;39320;53.214;6.556;2023-04-01T15:47:38;3.75;;;2.53;;
51907;SDS011;39320;53.214;6.556;2023-04-01T16:01:47;3.40;;;3.10;;
51907;SDS011;39320;53.214;6.556;2023-04-01T16:04:44;4.10;;;3.70;;
51907;SDS011;39320;53.214;6.556;2023-04-01T16:16:00;4.35;;;3.50;;
51907;SDS011;39320;53.214;6.556;2023-04-01T16:30:50;4.70;;;3.67;;
51907;SDS011;39320;53.214;6.556;2023-04-01T16:33:03;4.85;;;3.42;;
51907;SDS011;39320;53.214;6.556;2023-04-01T16:35:42;5.32;;;3.67;;
51907;SDS011;39320;53.214;6.556;2023-04-01T16:40:49;5.25;;;4.03;;
51907;SDS011;39320;53.214;6.556;2023-04-01T16:49:23;6.07;;;4.25;;
51907;SDS011;39320;53.214;6.556;2023-04-01T16:57:02;4.38;;;3.55;;
51907;SDS011;39320;53.214;6.556;2023-04-01T16:59:38;4.45;;;3.78;;
51907;SDS011;39320;53.214;6.556;2023-04-01T17:02:18;4.38;;;3.42;;
51907;SDS011;39320;53.214;6.556;2023-04-01T17:18:23;4.88;;;4.15;;
51907;SDS011;39320;53.214;6.556;2023-04-01T17:51:29;4.67;;;4.23;;
51907;SDS011;39320;53.214;6.556;2023-04-01T17:54:11;4.93;;;3.63;;
51907;SDS011;39320;53.214;6.556;2023-04-01T17:56:45;4.57;;;4.00;;
51907;SDS011;39320;53.214;6.556;2023-04-01T18:08:07;5.28;;;3.95;;
51907;SDS011;39320;53.214;6.556;2023-04-01T18:21:48;5.38;;;4.00;;
51907;SDS011;39320;53.214;6.556;2023-04-01T18:24:27;4.72;;;4.10;;
51907;SDS011;39320;53.214;6.556;2023-04-01T18:27:32;5.10;;;4.18;;
51907;SDS011;39320;53.214;6.556;2023-04-01T18:35:12;5.40;;;4.30;;
51907;SDS011;39320;53.214;6.556;2023-04-01T18:43:21;7.75;;;4.57;;
51907;SDS011;39320;53.214;6.556;2023-04-01T18:49:19;5.07;;;4.50;;
51907;SDS011;39320;53.214;6.556;2023-04-01T18:51:51;6.60;;;4.53;;
51907;SDS011;39320;53.214;6.556;2023-04-01T18:54:29;6.13;;;4.40;;
51907;SDS011;39320;53.214;6.556;2023-04-01T18:57:08;6.60;;;4.60;;
51907;SDS011;39320;53.214;6.556;2023-04-01T18:59:57;7.15;;;4.00;;
51907;SDS011;39320;53.214;6.556;2023-04-01T19:02:37;5.72;;;4.82;;
51907;SDS011;39320;53.214;6.556;2023-04-01T19:05:18;7.10;;;5.00;;
51907;SDS011;39320;53.214;6.556;2023-04-01T19:07:55;6.00;;;4.50;;
51907;SDS011;39320;53.214;6.556;2023-04-01T19:10:48;6.57;;;4.43;;
51907;SDS011;39320;53.214;6.556;2023-04-01T19:21:53;6.18;;;4.75;;
51907;SDS011;39320;53.214;6.556;2023-04-01T19:24:42;7.47;;;4.70;;
51907;SDS011;39320;53.214;6.556;2023-04-01T19:27:34;5.95;;;4.40;;
51907;SDS011;39320;53.214;6.556;2023-04-01T19:33:10;5.68;;;4.68;;
51907;SDS011;39320;53.214;6.556;2023-04-01T19:38:41;5.13;;;4.22;;
51907;SDS011;39320;53.214;6.556;2023-04-01T19:46:40;4.80;;;4.13;;
51907;SDS011;39320;53.214;6.556;2023-04-01T19:54:52;5.30;;;4.25;;
51907;SDS011;39320;53.214;6.556;2023-04-01T20:00:30;5.95;;;4.20;;
51907;SDS011;39320;53.214;6.556;2023-04-01T20:09:28;5.65;;;4.13;;
51907;SDS011;39320;53.214;6.556;2023-04-01T20:12:07;7.40;;;4.07;;
51907;SDS011;39320;53.214;6.556;2023-04-01T20:14:43;4.68;;;4.20;;
51907;SDS011;39320;53.214;6.556;2023-04-01T20:46:03;4.47;;;3.90;;
51907;SDS011;39320;53.214;6.556;2023-04-01T20:48:19;7.05;;;4.82;;
51907;SDS011;39320;53.214;6.556;2023-04-01T21:01:51;4.97;;;3.80;;
51907;SDS011;39320;53.214;6.556;2023-04-01T21:04:33;4.65;;;3.75;;
51907;SDS011;39320;53.214;6.556;2023-04-01T21:13:36;5.32;;;3.83;;
51907;SDS011;39320;53.214;6.556;2023-04-01T21:19:09;4.95;;;3.60;;
51907;SDS011;39320;53.214;6.556;2023-04-01T21:39:13;4.85;;;3.80;;
51907;SDS011;39320;53.214;6.556;2023-04-01T21:42:42;6.60;;;4.43;;
51907;SDS011;39320;53.214;6.556;2023-04-01T21:44:50;5.03;;;3.70;;
51907;SDS011;39320;53.214;6.556;2023-04-01T21:52:52;6.00;;;3.47;;
51907;SDS011;39320;53.214;6.556;2023-04-01T22:04:24;4.45;;;3.53;;
51907;SDS011;39320;53.214;6.556;2023-04-01T22:07:25;5.70;;;3.83;;
51907;SDS011;39320;53.214;6.556;2023-04-01T22:10:18;5.00;;;3.95;;
51907;SDS011;39320;53.214;6.556;2023-04-01T22:18:31;6.45;;;3.75;;
51907;SDS011;39320;53.214;6.556;2023-04-01T22:23:58;3.65;;;3.05;;
51907;SDS011;39320;53.214;6.556;2023-04-01T22:27:03;5.13;;;3.47;;
51907;SDS011;39320;53.214;6.556;2023-04-01T22:30:06;5.20;;;3.10;;
51907;SDS011;39320;53.214;6.556;2023-04-01T22:32:40;3.92;;;3.50;;
51907;SDS011;39320;53.214;6.556;2023-04-01T22:38:07;3.85;;;3.38;;
51907;SDS011;39320;53.214;6.556;2023-04-01T22:45:40;5.13;;;3.70;;
51907;SDS011;39320;53.214;6.556;2023-04-01T22:53:42;3.70;;;2.88;;
51907;SDS011;39320;53.214;6.556;2023-04-01T22:56:23;3.63;;;3.05;;
51907;SDS011;39320;53.214;6.556;2023-04-01T22:59:04;4.68;;;3.80;;
51907;SDS011;39320;53.214;6.556;2023-04-01T23:01:40;3.88;;;3.17;;
51907;SDS011;39320;53.214;6.556;2023-04-01T23:04:15;4.32;;;3.17;;
51907;SDS011;39320;53.214;6.556;2023-04-01T23:06:44;4.53;;;3.33;;
51907;SDS011;39320;53.214;6.556;2023-04-01T23:09:23;4.43;;;3.05;;
51907;SDS011;39320;53.214;6.556;2023-04-01T23:12:04;4.47;;;2.50;;
51907;SDS011;39320;53.214;6.556;2023-04-01T23:28:57;5.47;;;2.95;;
51907;SDS011;39320;53.214;6.556;2023-04-01T23:33:56;3.83;;;2.97;;
51907;SDS011;39320;53.214;6.556;2023-04-01T23:36:26;3.95;;;2.97;;
51907;SDS011;39320;53.214;6.556;2023-04-01T23:38:53;5.35;;;3.10;;
51907;SDS011;39320;53.214;6.556;2023-04-01T23:41:23;4.13;;;2.95;;
51907;SDS011;39320;53.214;6.556;2023-04-01T23:44:14;5.70;;;2.90;;
51907;SDS011;39320;53.214;6.556;2023-04-01T23:46:39;3.95;;;3.38;;
51907;SDS011;39320;53.214;6.556;2023-04-01T23:49:14;4.38;;;3.33;;
51907;SDS011;39320;53.214;6.556;2023-04-01T23:51:49;3.40;;;2.78;;
51907;SDS011;39320;53.214;6.556;2023-04-01T23:54:23;4.20;;;3.28;;
51907;SDS011;39320;53.214;6.556;2023-04-01T23:56:54;5.97;;;3.28;;
51907;SDS011;39320;53.214;6.556;2023-04-01T23:59:31;4.55;;;3.00;;
